Time;durP1;ratioP1;P1;durP2;ratioP2;P2;SDS_P1;SDS_P2;PMS_P1;PMS_P2;Temp;Humidity;BMP_temperature;BMP_pressure;BME280_temperature;BME280_humidity;BME280_pressure;Samples;Min_cycle;Max_cycle;Signal;HPM_P1;HPM_P2
2023/01/14 00:02:09;;;;;;;12.32;3.88;;;;;;;5.55;100.00;100824.28;10166362;28;20037;-71
2023/01/14 00:07:06;;;;;;;12.02;3.75;;;;;;;5.51;100.00;100829.47;10170747;28;20050;-71
2023/01/14 00:12:02;;;;;;;13.00;4.10;;;;;;;5.51;100.00;100834.88;10171981;28;20053;-71
2023/01/14 00:17:00;;;;;;;11.63;4.28;;;;;;;5.56;100.00;100842.97;10166656;28;20038;-72
2023/01/14 00:21:56;;;;;;;15.15;4.10;;;;;;;5.60;100.00;100838.63;10173006;28;20054;-71
2023/01/14 00:26:55;;;;;;;10.63;4.35;;;;;;;5.57;100.00;100855.47;10181556;28;20049;-72
2023/01/14 00:31:57;;;;;;;17.23;4.50;;;;;;;5.57;100.00;100849.22;10169455;28;20038;-71
2023/01/14 00:36:54;;;;;;;11.73;3.67;;;;;;;5.52;100.00;100868.22;10177725;28;20714;-71
2023/01/14 00:41:52;;;;;;;11.13;3.35;;;;;;;5.43;100.00;100876.97;10185302;28;20145;-71
2023/01/14 00:46:50;;;;;;;13.25;3.67;;;;;;;5.36;100.00;100870.22;10183262;28;20641;-71
2023/01/14 00:51:48;;;;;;;13.63;4.43;;;;;;;5.32;100.00;100885.44;10170918;28;20119;-71
2023/01/14 00:56:44;;;;;;;11.32;3.95;;;;;;;5.24;100.00;100890.34;10174146;28;20048;-73
2023/01/14 01:01:41;;;;;;;10.40;4.00;;;;;;;5.18;100.00;100894.16;10176541;28;20046;-72
2023/01/14 01:06:37;;;;;;;8.93;3.83;;;;;;;5.14;100.00;100890.38;10174434;28;20053;-72
2023/01/14 01:11:34;;;;;;;9.85;3.30;;;;;;;5.17;100.00;100910.69;10177403;28;20052;-73
2023/01/14 01:16:31;;;;;;;11.35;3.60;;;;;;;5.16;100.00;100915.31;10175647;28;20049;-73
2023/01/14 01:21:28;;;;;;;13.43;3.10;;;;;;;5.19;100.00;100919.34;10176164;28;20065;-73
2023/01/14 01:26:25;;;;;;;15.48;4.07;;;;;;;5.19;100.00;100920.16;10172646;28;20054;-73
2023/01/14 01:31:23;;;;;;;8.20;3.13;;;;;;;5.13;100.00;100925.88;10181158;28;20133;-72
2023/01/14 01:36:22;;;;;;;16.95;4.57;;;;;;;5.04;100.00;100933.78;10173508;28;20050;-72
2023/01/14 01:41:22;;;;;;;9.68;3.00;;;;;;;5.10;100.00;100931.84;10179076;28;20041;-73
2023/01/14 01:46:19;;;;;;;4.85;3.20;;;;;;;5.21;100.00;100961.38;10171907;28;20463;-74
2023/01/14 01:51:19;;;;;;;13.77;3.55;;;;;;;5.27;100.00;100965.69;10175490;28;20045;-74
2023/01/14 01:56:18;;;;;;;9.63;3.75;;;;;;;5.34;100.00;100973.53;10174752;28;20049;-72
2023/01/14 02:01:15;;;;;;;7.50;3.20;;;;;;;5.35;100.00;100975.16;10179415;28;20042;-74
2023/01/14 02:06:13;;;;;;;7.65;2.95;;;;;;;5.38;100.00;100981.91;10179152;28;20052;-73
2023/01/14 02:11:22;;;;;;;14.20;3.17;;;;;;;5.43;100.00;100987.31;10171988;28;20129;-74
2023/01/14 02:16:25;;;;;;;10.50;3.65;;;;;;;5.40;100.00;100975.13;10183841;28;20138;-73
2023/01/14 02:21:36;;;;;;;9.57;3.45;;;;;;;5.50;100.00;100990.56;10176221;28;20470;-72
2023/01/14 02:27:09;;;;;;;13.38;3.38;;;;;;;5.47;100.00;100991.09;10174109;28;20041;-72
2023/01/14 02:32:14;;;;;;;9.20;2.97;;;;;;;5.48;100.00;101006.31;10174511;28;20127;-71
2023/01/14 02:37:17;;;;;;;15.15;4.63;;;;;;;5.47;100.00;101004.66;10177502;28;20062;-71
2023/01/14 02:47:41;;;;;;;9.80;2.95;;;;;;;5.35;100.00;100996.03;10179805;28;20078;-73
2023/01/14 02:52:37;;;;;;;10.18;3.72;;;;;;;5.34;100.00;101007.97;10173877;28;20082;-72
2023/01/14 02:57:59;;;;;;;7.63;3.97;;;;;;;5.38;100.00;100999.00;10168073;28;21965;-71
2023/01/14 03:03:19;;;;;;;9.07;3.72;;;;;;;5.39;100.00;101016.09;10183100;28;20042;-72
2023/01/14 03:08:35;;;;;;;7.65;3.38;;;;;;;5.42;100.00;101010.13;10165791;28;20050;-72
2023/01/14 03:13:40;;;;;;;8.35;3.30;;;;;;;5.41;100.00;101019.34;10186140;28;20244;-72
2023/01/14 03:18:53;;;;;;;6.78;3.10;;;;;;;5.37;100.00;101019.06;10178896;28;20045;-72
2023/01/14 03:24:00;;;;;;;14.15;3.83;;;;;;;5.31;100.00;101022.06;10142101;28;20042;-72
2023/01/14 03:29:00;;;;;;;10.35;3.85;;;;;;;5.31;100.00;101019.38;10170280;28;20052;-72
2023/01/14 03:34:05;;;;;;;8.77;3.47;;;;;;;5.31;100.00;101024.78;10182231;28;20042;-73
2023/01/14 03:39:05;;;;;;;12.30;3.60;;;;;;;5.34;100.00;101018.81;10178214;28;20496;-71
2023/01/14 03:44:06;;;;;;;5.60;2.92;;;;;;;5.37;100.00;101018.28;10171979;28;20052;-71
2023/01/14 03:49:03;;;;;;;8.65;3.80;;;;;;;5.39;100.00;101022.31;10181256;28;20052;-72
2023/01/14 03:54:12;;;;;;;6.32;4.22;;;;;;;5.42;100.00;101031.81;10182670;28;20560;-72
2023/01/14 03:59:17;;;;;;;11.02;4.25;;;;;;;5.46;100.00;101043.75;10192782;28;20052;-71
2023/01/14 04:04:15;;;;;;;7.57;3.90;;;;;;;5.48;100.00;101025.28;10180447;28;20046;-72
2023/01/14 04:09:11;;;;;;;6.80;3.22;;;;;;;5.51;100.00;101030.16;10183339;28;20061;-72
2023/01/14 04:19:23;;;;;;;5.13;3.47;;;;;;;5.54;100.00;101024.16;10187370;28;20188;-72
2023/01/14 04:24:20;;;;;;;6.22;3.17;;;;;;;5.53;100.00;101036.13;10201031;28;20470;-72
2023/01/14 04:29:16;;;;;;;8.63;3.30;;;;;;;5.45;100.00;101044.81;10150161;28;20050;-72
2023/01/14 04:34:13;;;;;;;10.65;3.72;;;;;;;5.32;100.00;101053.53;10178687;28;20045;-72
2023/01/14 04:39:09;;;;;;;9.95;3.60;;;;;;;5.23;100.00;101066.84;10189073;28;20145;-72
2023/01/14 04:44:06;;;;;;;6.82;3.70;;;;;;;5.15;100.00;101062.78;10182955;28;20117;-72
2023/01/14 04:49:02;;;;;;;11.07;4.50;;;;;;;5.10;100.00;101079.03;10181842;28;20146;-71
2023/01/14 04:53:59;;;;;;;9.45;3.90;;;;;;;5.07;100.00;101068.75;10178111;28;20074;-70
2023/01/14 04:59:01;;;;;;;6.00;3.92;;;;;;;5.05;100.00;101076.31;10156873;28;20081;-72
2023/01/14 05:04:00;;;;;;;10.38;4.60;;;;;;;5.07;100.00;101074.97;10173189;28;20046;-72
2023/01/14 05:08:57;;;;;;;5.57;3.92;;;;;;;5.13;100.00;101083.09;10182463;28;20045;-72
2023/01/14 05:13:53;;;;;;;14.73;5.45;;;;;;;5.17;100.00;101084.97;10187872;28;20042;-71
2023/01/14 05:18:51;;;;;;;13.95;6.55;;;;;;;5.23;100.00;101073.06;10181276;28;20104;-71
2023/01/14 05:23:48;;;;;;;14.15;5.90;;;;;;;5.24;100.00;101068.44;10178900;28;20224;-70
2023/01/14 05:28:44;;;;;;;13.25;6.78;;;;;;;5.24;100.00;101058.44;10189507;28;20053;-73
2023/01/14 05:33:41;;;;;;;12.40;7.63;;;;;;;5.30;100.00;101075.50;10196649;28;20074;-70
2023/01/14 05:38:37;;;;;;;21.35;9.10;;;;;;;5.32;100.00;101053.53;10187367;28;20507;-69
2023/01/14 05:48:49;;;;;;;16.52;9.07;;;;;;;5.36;100.00;101058.13;10179485;28;20555;-71
2023/01/14 05:53:45;;;;;;;17.88;8.02;;;;;;;5.38;100.00;101053.22;10184618;28;20038;-71
2023/01/14 05:58:41;;;;;;;18.77;7.40;;;;;;;5.41;100.00;101052.69;10182661;28;20165;-71
2023/01/14 06:09:00;;;;;;;19.83;8.60;;;;;;;5.46;100.00;101032.88;10178252;28;20054;-71
2023/01/14 06:13:57;;;;;;;22.92;8.00;;;;;;;5.50;100.00;101025.84;10171715;28;20492;-70
2023/01/14 06:18:54;;;;;;;24.27;8.23;;;;;;;5.53;100.00;101027.97;10183067;28;20053;-70
2023/01/14 06:23:51;;;;;;;20.52;8.20;;;;;;;5.54;100.00;101035.03;10181153;28;20052;-70
2023/01/14 06:28:47;;;;;;;24.10;8.82;;;;;;;5.57;100.00;101039.91;10168974;28;20149;-70
2023/01/14 06:33:45;;;;;;;18.73;8.50;;;;;;;5.58;100.00;101033.38;10184478;28;20061;-70
2023/01/14 06:38:41;;;;;;;12.10;7.15;;;;;;;5.59;100.00;101023.34;10181020;28;20052;-69
2023/01/14 06:43:42;;;;;;;22.60;6.50;;;;;;;5.57;100.00;101007.38;10185002;28;20526;-70
2023/01/14 06:48:40;;;;;;;12.70;6.03;;;;;;;5.54;100.00;101004.38;10162242;28;21584;-70
2023/01/14 06:53:36;;;;;;;20.02;6.22;;;;;;;5.57;100.00;101009.25;10167809;28;20167;-70
2023/01/14 06:58:33;;;;;;;14.60;6.05;;;;;;;5.59;100.00;101010.63;10155615;28;20074;-70
2023/01/14 07:03:33;;;;;;;16.10;6.18;;;;;;;5.60;100.00;101011.41;10172812;28;20050;-70
2023/01/14 07:08:29;;;;;;;21.77;6.85;;;;;;;5.58;100.00;101008.97;10180474;28;20434;-69
2023/01/14 07:13:26;;;;;;;15.32;5.93;;;;;;;5.57;100.00;101007.38;10180661;28;20629;-71
2023/01/14 07:18:22;;;;;;;18.65;6.03;;;;;;;5.47;100.00;100997.34;10171225;28;20052;-71
2023/01/14 07:23:19;;;;;;;16.83;6.32;;;;;;;5.33;100.00;101001.72;10182118;28;20128;-71
2023/01/14 07:28:15;;;;;;;14.85;5.80;;;;;;;5.27;100.00;100992.81;10164641;28;20050;-71
2023/01/14 07:33:11;;;;;;;19.40;6.35;;;;;;;5.24;100.00;101004.22;10166943;28;20046;-70
2023/01/14 07:38:08;;;;;;;20.27;6.78;;;;;;;5.21;100.00;100987.66;10172688;28;20530;-71
2023/01/14 07:43:04;;;;;;;19.60;7.07;;;;;;;5.17;100.00;100975.75;10164480;28;20064;-71
2023/01/14 07:48:01;;;;;;;16.48;7.10;;;;;;;5.14;100.00;100968.97;10163842;28;20046;-71
2023/01/14 07:52:59;;;;;;;14.45;6.63;;;;;;;5.04;100.00;100960.88;10169861;28;20046;-72
2023/01/14 07:57:55;;;;;;;21.13;6.60;;;;;;;4.96;100.00;100964.13;10168753;28;20124;-73
2023/01/14 08:02:52;;;;;;;22.17;7.00;;;;;;;4.94;100.00;100974.44;10177305;28;20076;-73
2023/01/14 08:07:48;;;;;;;13.18;6.00;;;;;;;4.93;100.00;100976.34;10172828;28;20046;-71
2023/01/14 08:12:45;;;;;;;15.35;5.88;;;;;;;4.94;100.00;100966.31;10180200;28;20124;-72
2023/01/14 08:17:41;;;;;;;20.52;6.70;;;;;;;4.95;100.00;100963.34;10181346;28;20066;-73
2023/01/14 08:22:38;;;;;;;21.00;7.18;;;;;;;4.97;100.00;100949.53;10183925;28;20076;-73
2023/01/14 08:27:34;;;;;;;27.20;7.75;;;;;;;5.00;100.00;100954.38;10167554;28;20042;-74
2023/01/14 08:32:31;;;;;;;26.73;6.78;;;;;;;4.99;100.00;100941.91;10168752;28;20042;-71
2023/01/14 08:37:28;;;;;;;25.27;7.07;;;;;;;5.02;100.00;100941.38;10166159;28;20562;-71
2023/01/14 08:42:24;;;;;;;22.15;8.65;;;;;;;5.04;100.00;100933.78;10180022;28;20061;-72
2023/01/14 08:47:20;;;;;;;26.45;7.57;;;;;;;5.08;100.00;100934.84;10185204;28;20042;-71
2023/01/14 08:52:18;;;;;;;24.90;7.63;;;;;;;5.16;100.00;100907.19;10188566;28;20511;-72
2023/01/14 08:57:14;;;;;;;16.38;6.93;;;;;;;5.20;100.00;100897.41;10182194;28;20054;-72
2023/01/14 09:02:15;;;;;;;20.80;7.55;;;;;;;5.22;100.00;100894.41;10185842;28;20077;-71
2023/01/14 09:17:43;;;;;;;27.08;9.18;;;;;;;5.23;100.00;100877.88;10177389;28;20076;-70
2023/01/14 09:22:44;;;;;;;20.02;7.07;;;;;;;5.28;100.00;100869.69;10196529;28;20069;-70
2023/01/14 09:27:40;;;;;;;26.30;7.90;;;;;;;5.27;100.00;100862.66;10174802;28;20045;-70
2023/01/14 09:32:38;;;;;;;25.80;8.55;;;;;;;5.27;100.00;100851.81;10190654;28;20052;-70
2023/01/14 09:37:35;;;;;;;22.98;7.68;;;;;;;5.27;100.00;100840.97;10182524;28;20050;-70
2023/01/14 09:42:38;;;;;;;28.17;8.88;;;;;;;5.32;100.00;100842.06;10192349;28;20069;-70
2023/01/14 09:47:35;;;;;;;19.65;8.23;;;;;;;5.32;100.00;100845.56;10188247;28;20048;-70
2023/01/14 09:52:43;;;;;;;20.20;7.22;;;;;;;5.37;100.00;100828.47;10163463;28;20069;-70
2023/01/14 09:57:50;;;;;;;17.88;8.27;;;;;;;5.36;100.00;100824.13;10158900;28;20072;-70
2023/01/14 10:03:05;;;;;;;23.35;7.95;;;;;;;5.41;100.00;100818.69;10175869;28;20046;-70
2023/01/14 10:08:05;;;;;;;25.70;9.40;;;;;;;5.42;100.00;100809.44;10173089;28;20046;-70
2023/01/14 10:13:10;;;;;;;24.88;8.90;;;;;;;5.48;100.00;100792.06;10174124;28;20467;-70
2023/01/14 10:18:25;;;;;;;23.50;8.95;;;;;;;5.51;100.00;100785.25;10173215;28;20709;-70
2023/01/14 10:23:26;;;;;;;26.00;8.63;;;;;;;5.58;100.00;100770.28;10174205;28;20107;-72
2023/01/14 10:28:26;;;;;;;29.90;8.45;;;;;;;5.62;100.00;100749.63;10168205;28;20104;-70
2023/01/14 10:33:23;;;;;;;28.88;8.27;;;;;;;5.63;100.00;100729.53;10168028;28;21460;-70
2023/01/14 10:38:24;;;;;;;32.10;9.25;;;;;;;5.67;100.00;100703.47;10169803;28;20301;-71
2023/01/14 10:43:31;;;;;;;27.50;7.50;;;;;;;5.73;100.00;100700.72;10173810;28;20549;-69
2023/01/14 10:48:42;;;;;;;30.67;8.75;;;;;;;5.76;100.00;100684.69;10163756;28;20050;-69
2023/01/14 10:53:40;;;;;;;14.85;6.80;;;;;;;5.81;100.00;100656.69;10163432;28;20057;-69
2023/01/14 10:58:43;;;;;;;26.30;8.80;;;;;;;5.81;100.00;100624.13;10161424;28;20415;-69
2023/01/14 11:03:40;;;;;;;;;;;;;;;5.82;100.00;100598.59;10165773;28;20066;-69
2023/01/14 11:08:52;;;;;;;26.83;8.18;;;;;;;5.77;100.00;100612.22;10164425;28;20031;-70
2023/01/14 11:13:51;;;;;;;21.70;6.77;;;;;;;5.82;100.00;100590.47;10182999;28;20041;-70
2023/01/14 11:18:51;;;;;;;25.52;8.40;;;;;;;5.82;100.00;100566.03;10186772;28;20049;-70
2023/01/14 11:23:57;;;;;;;20.17;7.18;;;;;;;5.87;100.00;100544.28;10187369;28;20072;-70
2023/01/14 11:29:14;;;;;;;23.92;9.32;;;;;;;5.86;100.00;100521.75;10176303;28;20065;-70
2023/01/14 11:34:31;;;;;;;19.40;7.30;;;;;;;5.88;100.00;100507.91;10187379;28;20738;-69
2023/01/14 11:39:28;;;;;;;18.63;6.10;;;;;;;5.92;100.00;100503.53;10175003;28;20043;-68
2023/01/14 11:44:26;;;;;;;20.65;8.20;;;;;;;5.88;100.00;100497.06;10159630;28;20084;-67
2023/01/14 11:49:24;;;;;;;15.30;5.70;;;;;;;5.87;100.00;100457.44;10183007;28;20058;-68
2023/01/14 11:54:20;;;;;;;19.27;7.00;;;;;;;5.84;100.00;100447.19;10172996;28;20132;-70
2023/01/14 11:59:48;;;;;;;22.23;6.72;;;;;;;5.65;100.00;100437.13;10174893;28;20042;-69
2023/01/14 12:04:56;;;;;;;17.42;7.35;;;;;;;5.54;100.00;100411.22;10175185;28;20037;-69
2023/01/14 12:09:55;;;;;;;20.30;5.53;;;;;;;5.50;100.00;100404.78;10165883;28;20046;-69
2023/01/14 12:20:25;;;;;;;14.77;6.28;;;;;;;5.35;100.00;100386.00;10197938;28;20057;-69
2023/01/14 12:25:30;;;;;;;10.10;4.88;;;;;;;5.30;100.00;100367.09;10216690;28;20061;-70
2023/01/14 12:30:55;;;;;;;13.82;6.35;;;;;;;5.25;100.00;100344.38;10228701;28;20050;-68
2023/01/14 12:36:07;;;;;;;18.00;6.85;;;;;;;5.24;100.00;100326.50;10203977;28;20693;-70
2023/01/14 12:46:22;;;;;;;21.58;7.43;;;;;;;5.22;100.00;100284.50;10194216;28;20046;-69
2023/01/14 12:51:24;;;;;;;14.35;6.00;;;;;;;5.20;100.00;100276.69;10188299;28;20061;-69
2023/01/14 12:56:31;;;;;;;12.57;5.53;;;;;;;5.14;100.00;100267.00;10212251;28;20049;-69
2023/01/14 13:01:59;;;;;;;15.93;5.70;;;;;;;5.12;100.00;100242.09;10189624;28;20503;-68
2023/01/14 13:07:00;;;;;;;11.15;4.75;;;;;;;5.09;100.00;100212.06;10192725;28;20129;-69
2023/01/14 13:11:57;;;;;;;12.52;5.88;;;;;;;5.05;100.00;100204.50;10158290;28;20078;-69
2023/01/14 13:17:18;;;;;;;17.83;6.20;;;;;;;5.07;100.00;100179.84;10175976;28;20046;-69
2023/01/14 13:22:43;;;;;;;11.68;5.20;;;;;;;5.05;100.00;100176.63;10191712;28;20068;-69
2023/01/14 13:27:41;;;;;;;14.40;6.15;;;;;;;5.14;100.00;100147.75;10159298;28;20058;-69
2023/01/14 13:32:59;;;;;;;12.23;5.15;;;;;;;5.14;100.00;100136.91;10157653;28;20046;-69
2023/01/14 13:37:58;;;;;;;14.60;5.47;;;;;;;5.12;100.00;100120.13;10236016;28;20454;-69
2023/01/14 13:42:58;;;;;;;11.75;4.68;;;;;;;5.14;100.00;100109.81;10220261;28;20041;-69
2023/01/14 13:47:58;;;;;;;13.43;5.15;;;;;;;5.12;100.00;100082.19;10196311;28;20140;-69
2023/01/14 13:53:04;;;;;;;9.88;4.60;;;;;;;5.19;100.00;100074.50;10193907;28;20531;-69
2023/01/14 13:58:19;;;;;;;11.70;5.25;;;;;;;5.11;100.00;100045.38;10156424;28;20058;-69
2023/01/14 14:03:37;;;;;;;11.70;4.93;;;;;;;5.14;100.00;100033.13;10159065;28;20085;-69
2023/01/14 14:08:33;;;;;;;11.40;4.47;;;;;;;5.13;100.00;100020.66;10160830;28;20266;-69
2023/01/14 14:19:03;;;;;;;10.55;5.15;;;;;;;5.21;100.00;99969.31;10235312;28;20168;-69
2023/01/14 14:24:05;;;;;;;9.85;5.00;;;;;;;5.21;100.00;99961.16;10202073;28;20057;-68
2023/01/14 14:29:11;;;;;;;10.60;4.60;;;;;;;5.27;100.00;99937.50;10235029;28;20045;-69
2023/01/14 14:34:22;;;;;;;13.68;5.45;;;;;;;5.29;100.00;99913.56;10212314;28;20410;-69
2023/01/14 14:39:24;;;;;;;9.25;4.35;;;;;;;5.34;100.00;99901.84;10194085;28;20074;-69
2023/01/14 14:44:23;;;;;;;21.10;5.90;;;;;;;5.30;100.00;99884.59;10194625;28;20065;-69
2023/01/14 14:49:34;;;;;;;9.20;5.10;;;;;;;5.30;100.00;99852.84;10193064;28;20045;-68
2023/01/14 14:54:32;;;;;;;12.48;4.72;;;;;;;5.31;100.00;99842.81;10194109;28;20651;-69
2023/01/14 14:59:32;;;;;;;7.53;3.83;;;;;;;5.37;100.00;99809.06;10174033;28;20059;-69
2023/01/14 15:04:30;;;;;;;9.80;4.35;;;;;;;5.37;100.00;99790.91;10177327;28;20103;-69
2023/01/14 15:09:29;;;;;;;9.48;4.07;;;;;;;5.41;100.00;99791.09;10230205;28;20053;-69
2023/01/14 15:14:30;;;;;;;11.90;4.57;;;;;;;5.44;100.00;99785.84;10204878;28;20103;-69
2023/01/14 15:19:30;;;;;;;7.97;3.80;;;;;;;5.45;100.00;99768.50;10196872;28;20058;-69
2023/01/14 15:24:29;;;;;;;15.25;4.53;;;;;;;5.47;100.00;99760.03;10176088;28;20495;-68
2023/01/14 15:29:29;;;;;;;8.20;4.28;;;;;;;5.47;100.00;99732.94;10206200;28;20041;-68
2023/01/14 15:34:26;;;;;;;8.93;3.72;;;;;;;5.47;100.00;99722.06;10194994;28;20038;-68
2023/01/14 15:39:22;;;;;;;8.63;4.03;;;;;;;5.51;100.00;99701.38;10152633;28;20456;-68
2023/01/14 15:44:27;;;;;;;7.50;3.42;;;;;;;5.60;100.00;99687.88;10173785;28;20080;-68
2023/01/14 15:49:26;;;;;;;9.32;3.15;;;;;;;5.61;100.00;99673.22;10232750;28;20256;-68
2023/01/14 15:54:38;;;;;;;7.53;3.75;;;;;;;5.63;100.00;99650.09;10236001;28;20124;-68
2023/01/14 15:59:34;;;;;;;3.65;2.92;;;;;;;5.68;100.00;99641.81;10240941;28;20648;-69
2023/01/14 16:04:32;;;;;;;6.97;3.00;;;;;;;5.75;100.00;99629.72;10221031;28;20124;-68
2023/01/14 16:09:29;;;;;;;7.18;4.40;;;;;;;5.78;100.00;99623.66;10195360;28;20054;-68
2023/01/14 16:14:36;;;;;;;7.90;3.05;;;;;;;5.86;100.00;99614.78;10182625;28;20136;-69
2023/01/14 16:19:34;;;;;;;6.13;3.40;;;;;;;5.89;100.00;99587.84;10198900;28;20499;-68
2023/01/14 16:24:32;;;;;;;5.60;3.03;;;;;;;5.93;100.00;99566.28;10207186;28;20074;-67
2023/01/14 16:29:29;;;;;;;5.40;3.13;;;;;;;6.01;100.00;99557.41;10199208;28;20100;-67
2023/01/14 16:34:25;;;;;;;7.38;2.65;;;;;;;6.01;100.00;99534.91;10201238;28;20120;-68
2023/01/14 16:39:22;;;;;;;4.03;2.53;;;;;;;6.01;100.00;99557.41;10239274;28;20057;-68
2023/01/14 16:44:18;;;;;;;3.97;2.90;;;;;;;6.03;100.00;99538.88;10214944;28;20053;-68
2023/01/14 16:49:14;;;;;;;5.65;3.42;;;;;;;6.05;100.00;99531.22;10230634;28;20076;-67
2023/01/14 16:54:16;;;;;;;6.38;3.10;;;;;;;6.19;100.00;99530.31;10177122;28;20053;-68
2023/01/14 16:59:14;;;;;;;3.08;2.65;;;;;;;6.29;100.00;99524.59;10213357;28;20105;-68
2023/01/14 17:04:11;;;;;;;5.28;3.47;;;;;;;6.37;100.00;99499.34;10176056;28;20045;-68
2023/01/14 17:09:08;;;;;;;4.45;2.78;;;;;;;6.45;100.00;99490.41;10229609;28;20070;-68
2023/01/14 17:14:04;;;;;;;3.30;2.40;;;;;;;6.55;100.00;99483.06;10175026;28;20526;-68
2023/01/14 17:19:01;;;;;;;3.80;2.50;;;;;;;6.56;100.00;99480.00;10198681;28;20046;-68
2023/01/14 17:23:57;;;;;;;5.53;2.55;;;;;;;6.59;100.00;99459.53;10172789;28;20053;-68
2023/01/14 17:28:54;;;;;;;6.22;2.50;;;;;;;6.62;100.00;99456.22;10161324;28;20043;-68
2023/01/14 17:33:53;;;;;;;4.72;2.72;;;;;;;6.65;100.00;99450.91;10148036;28;20052;-68
2023/01/14 17:38:50;;;;;;;3.90;2.28;;;;;;;6.66;100.00;99443.56;10190448;28;20078;-67
2023/01/14 17:43:49;;;;;;;4.85;2.75;;;;;;;6.70;100.00;99439.09;10190878;28;20045;-68
2023/01/14 17:48:45;;;;;;;3.22;2.65;;;;;;;6.71;100.00;99421.69;10236638;28;20045;-68
2023/01/14 17:53:42;;;;;;;3.65;2.40;;;;;;;6.73;100.00;99408.56;10177067;28;20047;-68
2023/01/14 17:58:38;;;;;;;7.35;2.30;;;;;;;6.77;100.00;99398.63;10236213;28;20065;-68
2023/01/14 18:03:35;;;;;;;3.95;2.70;;;;;;;6.80;100.00;99392.56;10199819;28;20530;-68
2023/01/14 18:08:35;;;;;;;3.92;2.53;;;;;;;6.87;100.00;99373.03;10219926;28;20515;-68
2023/01/14 18:13:31;;;;;;;3.95;2.50;;;;;;;6.91;100.00;99360.38;10199345;28;20539;-68
2023/01/14 18:18:28;;;;;;;4.05;2.40;;;;;;;6.92;100.00;99368.22;10188840;28;20072;-68
2023/01/14 18:23:25;;;;;;;3.67;2.65;;;;;;;7.02;100.00;99349.97;10193293;28;20411;-70
2023/01/14 18:28:21;;;;;;;4.03;2.90;;;;;;;7.03;100.00;99367.84;10206836;28;20528;-68
2023/01/14 18:33:18;;;;;;;3.50;2.35;;;;;;;7.07;100.00;99364.16;10178545;28;20089;-67
2023/01/14 18:38:14;;;;;;;3.10;2.40;;;;;;;7.11;100.00;99375.19;10234952;28;20144;-68
2023/01/14 18:43:11;;;;;;;3.40;2.40;;;;;;;7.16;100.00;99345.88;10169173;28;20211;-68
2023/01/14 18:48:08;;;;;;;3.55;2.67;;;;;;;7.20;100.00;99351.47;10223694;28;20072;-68
2023/01/14 18:53:05;;;;;;;3.47;2.13;;;;;;;7.23;100.00;99350.81;10192459;28;20100;-67
2023/01/14 18:58:01;;;;;;;3.53;2.20;;;;;;;7.27;100.00;99338.16;10193246;28;20491;-68
2023/01/14 19:02:57;;;;;;;3.03;1.90;;;;;;;7.33;100.00;99339.56;10193919;28;20647;-67
2023/01/14 19:07:54;;;;;;;3.90;1.90;;;;;;;7.35;100.00;99337.28;10157145;28;20520;-67
2023/01/14 19:12:50;;;;;;;4.53;2.33;;;;;;;7.44;100.00;99328.28;10176551;28;20060;-68
2023/01/14 19:17:47;;;;;;;3.60;2.08;;;;;;;7.50;100.00;99294.34;10222290;28;20050;-68
2023/01/14 19:22:43;;;;;;;2.92;1.80;;;;;;;7.52;100.00;99305.66;10191987;28;20137;-68
2023/01/14 19:27:41;;;;;;;3.03;1.83;;;;;;;7.58;100.00;99298.91;10195674;28;20053;-68
2023/01/14 19:32:38;;;;;;;3.95;2.30;;;;;;;7.61;100.00;99300.94;10192326;28;20532;-68
2023/01/14 19:37:34;;;;;;;4.35;2.10;;;;;;;7.66;100.00;99284.44;10200163;28;20065;-67
2023/01/14 19:42:34;;;;;;;2.42;1.85;;;;;;;7.73;100.00;99273.81;10170870;28;20054;-68
2023/01/14 19:47:30;;;;;;;2.70;1.85;;;;;;;7.79;100.00;99286.06;10211856;28;20129;-68
2023/01/14 19:52:27;;;;;;;4.03;2.28;;;;;;;7.84;100.00;99265.22;10177099;28;20433;-67
2023/01/14 19:57:23;;;;;;;2.47;1.60;;;;;;;7.92;100.00;99245.31;10192608;28;20061;-70
2023/01/14 20:02:19;;;;;;;2.55;1.55;;;;;;;8.09;100.00;99256.00;10160651;28;20066;-69
2023/01/14 20:07:16;;;;;;;2.83;1.55;;;;;;;8.10;100.00;99235.84;10221394;28;20049;-70
2023/01/14 20:12:12;;;;;;;2.60;1.80;;;;;;;8.20;100.00;99251.72;10195666;28;20533;-69
2023/01/14 20:17:09;;;;;;;3.28;2.30;;;;;;;8.19;100.00;99233.81;10221211;28;20080;-70
2023/01/14 20:22:05;;;;;;;3.58;2.40;;;;;;;8.23;100.00;99253.75;10220012;28;20499;-67
2023/01/14 20:27:02;;;;;;;3.63;2.50;;;;;;;8.34;100.00;99243.25;10224620;28;20053;-67
2023/01/14 20:31:58;;;;;;;3.42;2.47;;;;;;;8.41;100.00;99234.53;10217699;28;20141;-68
2023/01/14 20:36:55;;;;;;;4.20;2.88;;;;;;;8.46;100.00;99220.69;10224436;28;20041;-70
2023/01/14 20:47:06;;;;;;;2.60;2.05;;;;;;;8.54;100.00;99206.19;10224907;28;20041;-70
2023/01/14 20:52:03;;;;;;;3.15;2.40;;;;;;;8.53;100.00;99204.56;10162701;28;20050;-70
2023/01/14 20:57:00;;;;;;;3.63;2.40;;;;;;;8.59;100.00;99216.84;10211988;28;20054;-67
2023/01/14 21:01:56;;;;;;;3.45;2.55;;;;;;;8.64;100.00;99222.06;10197356;28;20046;-68
2023/01/14 21:06:53;;;;;;;3.03;2.35;;;;;;;8.70;100.00;99240.91;10209781;28;20046;-67
2023/01/14 21:11:51;;;;;;;3.67;2.90;;;;;;;8.81;100.00;99226.47;10159141;28;20134;-67
2023/01/14 21:27:18;;;;;;;3.50;2.53;;;;;;;8.83;100.00;99190.69;10199725;28;20069;-70
2023/01/14 21:32:14;;;;;;;3.90;2.80;;;;;;;8.92;100.00;99188.66;10197488;28;20448;-67
2023/01/14 21:37:13;;;;;;;3.88;2.10;;;;;;;8.90;100.00;99180.00;10228043;28;20411;-67
2023/01/14 21:47:24;;;;;;;3.35;3.03;;;;;;;8.98;100.00;99187.28;10231099;28;20077;-70
2023/01/14 21:52:21;;;;;;;4.88;3.70;;;;;;;9.09;100.00;99186.78;10226136;28;20042;-70
2023/01/14 21:57:17;;;;;;;3.80;3.40;;;;;;;9.12;100.00;99197.00;10208361;28;20081;-70
2023/01/14 22:02:20;;;;;;;10.48;3.20;;;;;;;7.86;100.00;99307.31;10182663;28;20077;-69
2023/01/14 22:07:16;;;;;;;8.80;2.85;;;;;;;7.36;100.00;99281.78;10240011;28;20041;-69
2023/01/14 22:12:13;;;;;;;6.28;2.25;;;;;;;7.17;100.00;99303.19;10201425;28;20747;-69
2023/01/14 22:17:09;;;;;;;6.90;2.35;;;;;;;7.10;100.00;99319.22;10222587;28;20088;-69
2023/01/14 22:22:06;;;;;;;7.95;2.40;;;;;;;6.90;100.00;99329.72;10169384;28;20050;-70
2023/01/14 22:27:02;;;;;;;6.43;2.47;;;;;;;6.73;100.00;99333.31;10220569;28;20049;-69
2023/01/14 22:31:58;;;;;;;4.75;2.05;;;;;;;6.64;100.00;99313.53;10156683;28;20050;-70
2023/01/14 22:36:55;;;;;;;4.78;2.17;;;;;;;6.60;100.00;99330.81;10178188;28;20073;-70
2023/01/14 22:41:51;;;;;;;5.10;2.90;;;;;;;6.58;100.00;99328.41;10154780;28;20047;-70
2023/01/14 22:46:48;;;;;;;3.25;2.38;;;;;;;6.57;100.00;99334.16;10168245;28;20397;-70
2023/01/14 22:51:45;;;;;;;5.22;3.25;;;;;;;6.24;100.00;99380.84;10155130;28;20050;-70
2023/01/14 22:56:41;;;;;;;4.40;2.53;;;;;;;6.00;100.00;99382.16;10213872;28;20051;-69
2023/01/14 23:01:38;;;;;;;8.75;2.72;;;;;;;5.69;100.00;99388.50;10218378;28;20041;-69
2023/01/14 23:06:35;;;;;;;6.35;3.00;;;;;;;5.72;100.00;99399.84;10223027;28;20124;-69
2023/01/14 23:11:32;;;;;;;4.30;2.95;;;;;;;5.67;100.00;99381.81;10219228;28;20070;-70
2023/01/14 23:27:01;;;;;;;7.28;2.90;;;;;;;5.47;100.00;99358.78;10218197;28;20069;-69
2023/01/14 23:31:57;;;;;;;6.50;3.03;;;;;;;5.42;100.00;99350.81;10164904;28;20229;-69
2023/01/14 23:36:54;;;;;;;6.88;3.00;;;;;;;5.44;100.00;99338.53;10178004;28;20053;-68
2023/01/14 23:41:51;;;;;;;3.88;2.58;;;;;;;5.40;100.00;99342.22;10153004;28;20133;-68
2023/01/14 23:47:07;;;;;;;10.85;3.03;;;;;;;5.40;100.00;99342.22;10174750;28;20132;-68
2023/01/14 23:52:04;;;;;;;8.27;2.80;;;;;;;5.39;100.00;99354.19;10152906;28;20070;-68
2023/01/14 23:57:01;;;;;;;7.60;2.60;;;;;;;5.38;100.00;99349.84;10217649;28;20470;-68
